sensor_id;sensor_type;location;lat;lon;timestamp;temperature;humidity
3948;DHT22;1988;48.694;9.562;2022-07-25T00:01:17;27.70;99.90
3948;DHT22;1988;48.694;9.562;2022-07-25T00:03:42;27.60;99.90
3948;DHT22;1988;48.694;9.562;2022-07-25T00:06:08;27.60;99.90
3948;DHT22;1988;48.694;9.562;2022-07-25T00:08:33;27.60;99.90
3948;DHT22;1988;48.694;9.562;2022-07-25T00:10:59;27.60;99.90
3948;DHT22;1988;48.694;9.562;2022-07-25T00:13:24;27.60;99.90
3948;DHT22;1988;48.694;9.562;2022-07-25T00:15:50;27.60;99.90
3948;DHT22;1988;48.694;9.562;2022-07-25T00:18:15;27.50;99.90
3948;DHT22;1988;48.694;9.562;2022-07-25T00:20:41;27.50;99.90
3948;DHT22;1988;48.694;9.562;2022-07-25T00:23:06;27.50;99.90
3948;DHT22;1988;48.694;9.562;2022-07-25T00:25:32;27.50;99.90
3948;DHT22;1988;48.694;9.562;2022-07-25T00:27:57;27.50;99.90
3948;DHT22;1988;48.694;9.562;2022-07-25T00:30:23;27.40;99.90
3948;DHT22;1988;48.694;9.562;2022-07-25T00:32:48;27.40;99.90
3948;DHT22;1988;48.694;9.562;2022-07-25T00:35:14;27.40;99.90
3948;DHT22;1988;48.694;9.562;2022-07-25T00:37:39;27.40;99.90
3948;DHT22;1988;48.694;9.562;2022-07-25T00:40:05;27.40;99.90
3948;DHT22;1988;48.694;9.562;2022-07-25T00:42:31;27.40;99.90
3948;DHT22;1988;48.694;9.562;2022-07-25T00:44:56;27.30;99.90
3948;DHT22;1988;48.694;9.562;2022-07-25T00:47:24;27.30;99.90
3948;DHT22;1988;48.694;9.562;2022-07-25T00:49:49;27.30;99.90
3948;DHT22;1988;48.694;9.562;2022-07-25T00:52:15;27.30;99.90
3948;DHT22;1988;48.694;9.562;2022-07-25T00:54:40;27.30;99.90
3948;DHT22;1988;48.694;9.562;2022-07-25T00:57:06;27.20;99.90
3948;DHT22;1988;48.694;9.562;2022-07-25T00:59:31;27.20;99.90
3948;DHT22;1988;48.694;9.562;2022-07-25T01:01:57;27.20;99.90
3948;DHT22;1988;48.694;9.562;2022-07-25T01:04:22;27.20;99.90
3948;DHT22;1988;48.694;9.562;2022-07-25T01:06:48;27.20;99.90
3948;DHT22;1988;48.694;9.562;2022-07-25T01:09:14;27.10;99.90
3948;DHT22;1988;48.694;9.562;2022-07-25T01:11:40;27.10;99.90
3948;DHT22;1988;48.694;9.562;2022-07-25T01:14:06;27.10;99.90
3948;DHT22;1988;48.694;9.562;2022-07-25T01:16:31;27.10;99.90
3948;DHT22;1988;48.694;9.562;2022-07-25T01:18:57;27.10;99.90
3948;DHT22;1988;48.694;9.562;2022-07-25T01:21:23;27.00;99.90
3948;DHT22;1988;48.694;9.562;2022-07-25T01:23:49;27.00;99.90
3948;DHT22;1988;48.694;9.562;2022-07-25T01:26:15;27.00;99.90
3948;DHT22;1988;48.694;9.562;2022-07-25T01:28:40;27.00;99.90
3948;DHT22;1988;48.694;9.562;2022-07-25T01:31:06;27.00;99.90
3948;DHT22;1988;48.694;9.562;2022-07-25T01:33:31;27.00;99.90
3948;DHT22;1988;48.694;9.562;2022-07-25T01:35:57;27.00;99.90
3948;DHT22;1988;48.694;9.562;2022-07-25T01:38:22;26.90;99.90
3948;DHT22;1988;48.694;9.562;2022-07-25T01:40:48;26.90;99.90
3948;DHT22;1988;48.694;9.562;2022-07-25T01:43:13;26.90;99.90
3948;DHT22;1988;48.694;9.562;2022-07-25T01:45:39;26.90;99.90
3948;DHT22;1988;48.694;9.562;2022-07-25T01:48:04;26.90;99.90
3948;DHT22;1988;48.694;9.562;2022-07-25T01:50:30;26.80;99.90
3948;DHT22;1988;48.694;9.562;2022-07-25T01:52:55;26.80;99.90
3948;DHT22;1988;48.694;9.562;2022-07-25T01:55:21;26.80;99.90
3948;DHT22;1988;48.694;9.562;2022-07-25T01:57:46;26.80;99.90
3948;DHT22;1988;48.694;9.562;2022-07-25T02:00:12;26.70;99.90
3948;DHT22;1988;48.694;9.562;2022-07-25T02:02:41;26.70;99.90
3948;DHT22;1988;48.694;9.562;2022-07-25T02:05:07;26.70;99.90
3948;DHT22;1988;48.694;9.562;2022-07-25T02:07:33;26.70;99.90
3948;DHT22;1988;48.694;9.562;2022-07-25T02:09:59;26.70;99.90
3948;DHT22;1988;48.694;9.562;2022-07-25T02:12:24;26.60;99.90
3948;DHT22;1988;48.694;9.562;2022-07-25T02:14:50;26.60;99.90
3948;DHT22;1988;48.694;9.562;2022-07-25T02:17:15;26.60;99.90
3948;DHT22;1988;48.694;9.562;2022-07-25T02:19:41;26.60;99.90
3948;DHT22;1988;48.694;9.562;2022-07-25T02:22:06;26.60;99.90
3948;DHT22;1988;48.694;9.562;2022-07-25T02:24:32;26.60;99.90
3948;DHT22;1988;48.694;9.562;2022-07-25T02:26:57;26.50;99.90
3948;DHT22;1988;48.694;9.562;2022-07-25T02:29:23;26.50;99.90
3948;DHT22;1988;48.694;9.562;2022-07-25T02:31:48;26.50;99.90
3948;DHT22;1988;48.694;9.562;2022-07-25T02:34:16;26.50;99.90
3948;DHT22;1988;48.694;9.562;2022-07-25T02:36:41;26.50;99.90
3948;DHT22;1988;48.694;9.562;2022-07-25T02:39:07;26.50;99.90
3948;DHT22;1988;48.694;9.562;2022-07-25T02:41:32;26.50;99.90
3948;DHT22;1988;48.694;9.562;2022-07-25T02:43:58;26.50;99.90
3948;DHT22;1988;48.694;9.562;2022-07-25T02:46:23;26.40;99.90
3948;DHT22;1988;48.694;9.562;2022-07-25T02:48:49;26.40;99.90
3948;DHT22;1988;48.694;9.562;2022-07-25T02:51:14;26.40;99.90
3948;DHT22;1988;48.694;9.562;2022-07-25T02:53:40;26.40;99.90
3948;DHT22;1988;48.694;9.562;2022-07-25T02:56:05;26.30;99.90
3948;DHT22;1988;48.694;9.562;2022-07-25T02:58:31;26.30;99.90
3948;DHT22;1988;48.694;9.562;2022-07-25T03:00:56;26.20;99.90
3948;DHT22;1988;48.694;9.562;2022-07-25T03:03:22;26.20;99.90
3948;DHT22;1988;48.694;9.562;2022-07-25T03:05:48;26.10;99.90
3948;DHT22;1988;48.694;9.562;2022-07-25T03:08:13;26.10;99.90
3948;DHT22;1988;48.694;9.562;2022-07-25T03:10:39;26.00;99.90
3948;DHT22;1988;48.694;9.562;2022-07-25T03:13:04;25.90;99.90
3948;DHT22;1988;48.694;9.562;2022-07-25T03:15:30;25.90;99.90
3948;DHT22;1988;48.694;9.562;2022-07-25T03:17:55;25.90;99.90
3948;DHT22;1988;48.694;9.562;2022-07-25T03:20:21;25.80;99.90
3948;DHT22;1988;48.694;9.562;2022-07-25T03:22:46;25.80;99.90
3948;DHT22;1988;48.694;9.562;2022-07-25T03:25:12;25.70;99.90
3948;DHT22;1988;48.694;9.562;2022-07-25T03:27:37;25.70;99.90
3948;DHT22;1988;48.694;9.562;2022-07-25T03:30:03;25.70;99.90
3948;DHT22;1988;48.694;9.562;2022-07-25T03:32:29;25.60;99.90
3948;DHT22;1988;48.694;9.562;2022-07-25T03:34:54;25.60;99.90
3948;DHT22;1988;48.694;9.562;2022-07-25T03:37:20;25.60;99.90
3948;DHT22;1988;48.694;9.562;2022-07-25T03:39:45;25.50;99.90
3948;DHT22;1988;48.694;9.562;2022-07-25T03:42:11;25.40;99.90
3948;DHT22;1988;48.694;9.562;2022-07-25T03:44:36;25.40;99.90
3948;DHT22;1988;48.694;9.562;2022-07-25T03:47:02;25.40;99.90
3948;DHT22;1988;48.694;9.562;2022-07-25T03:49:28;25.30;99.90
3948;DHT22;1988;48.694;9.562;2022-07-25T03:51:53;25.30;99.90
3948;DHT22;1988;48.694;9.562;2022-07-25T03:54:19;25.20;99.90
3948;DHT22;1988;48.694;9.562;2022-07-25T03:56:45;25.20;99.90
3948;DHT22;1988;48.694;9.562;2022-07-25T03:59:12;25.20;99.90
3948;DHT22;1988;48.694;9.562;2022-07-25T04:01:38;25.20;99.90
3948;DHT22;1988;48.694;9.562;2022-07-25T04:04:03;25.20;99.90
3948;DHT22;1988;48.694;9.562;2022-07-25T04:06:29;25.10;99.90
3948;DHT22;1988;48.694;9.562;2022-07-25T04:08:55;25.10;99.90
3948;DHT22;1988;48.694;9.562;2022-07-25T04:11:22;25.00;99.90
3948;DHT22;1988;48.694;9.562;2022-07-25T04:13:48;25.00;99.90
3948;DHT22;1988;48.694;9.562;2022-07-25T04:16:14;25.00;99.90
3948;DHT22;1988;48.694;9.562;2022-07-25T04:18:40;25.00;99.90
3948;DHT22;1988;48.694;9.562;2022-07-25T04:21:05;24.90;99.90
3948;DHT22;1988;48.694;9.562;2022-07-25T04:23:31;24.90;99.90
3948;DHT22;1988;48.694;9.562;2022-07-25T04:25:57;24.80;99.90
3948;DHT22;1988;48.694;9.562;2022-07-25T04:28:23;24.80;99.90
3948;DHT22;1988;48.694;9.562;2022-07-25T04:30:48;24.80;99.90
3948;DHT22;1988;48.694;9.562;2022-07-25T04:33:14;24.80;99.90
3948;DHT22;1988;48.694;9.562;2022-07-25T04:35:40;24.70;99.90
3948;DHT22;1988;48.694;9.562;2022-07-25T04:38:05;24.70;99.90
3948;DHT22;1988;48.694;9.562;2022-07-25T04:40:31;24.70;99.90
3948;DHT22;1988;48.694;9.562;2022-07-25T04:42:56;24.60;99.90
3948;DHT22;1988;48.694;9.562;2022-07-25T04:45:22;24.60;99.90
3948;DHT22;1988;48.694;9.562;2022-07-25T04:47:48;24.60;99.90
3948;DHT22;1988;48.694;9.562;2022-07-25T04:50:14;24.60;99.90
3948;DHT22;1988;48.694;9.562;2022-07-25T04:52:39;24.60;99.90
3948;DHT22;1988;48.694;9.562;2022-07-25T04:55:05;24.60;99.90
3948;DHT22;1988;48.694;9.562;2022-07-25T04:57:33;24.60;99.90
3948;DHT22;1988;48.694;9.562;2022-07-25T04:59:58;24.60;99.90
3948;DHT22;1988;48.694;9.562;2022-07-25T05:02:24;24.60;99.90
3948;DHT22;1988;48.694;9.562;2022-07-25T05:04:50;24.60;99.90
3948;DHT22;1988;48.694;9.562;2022-07-25T05:07:15;24.50;99.90
3948;DHT22;1988;48.694;9.562;2022-07-25T05:09:41;24.50;99.90
3948;DHT22;1988;48.694;9.562;2022-07-25T05:12:06;24.50;99.90
3948;DHT22;1988;48.694;9.562;2022-07-25T05:14:32;24.50;99.90
3948;DHT22;1988;48.694;9.562;2022-07-25T05:16:57;24.50;99.90
3948;DHT22;1988;48.694;9.562;2022-07-25T05:19:23;24.50;99.90
3948;DHT22;1988;48.694;9.562;2022-07-25T05:21:48;24.40;99.90
3948;DHT22;1988;48.694;9.562;2022-07-25T05:24:14;24.40;99.90
3948;DHT22;1988;48.694;9.562;2022-07-25T05:26:39;24.40;99.90
3948;DHT22;1988;48.694;9.562;2022-07-25T05:29:05;24.40;99.90
3948;DHT22;1988;48.694;9.562;2022-07-25T05:31:31;24.40;99.90
3948;DHT22;1988;48.694;9.562;2022-07-25T05:33:56;24.40;99.90
3948;DHT22;1988;48.694;9.562;2022-07-25T05:36:22;24.40;99.90
3948;DHT22;1988;48.694;9.562;2022-07-25T05:38:48;24.40;99.90
3948;DHT22;1988;48.694;9.562;2022-07-25T05:41:13;24.40;99.90
3948;DHT22;1988;48.694;9.562;2022-07-25T05:43:40;24.40;99.90
3948;DHT22;1988;48.694;9.562;2022-07-25T05:46:10;24.40;99.90
3948;DHT22;1988;48.694;9.562;2022-07-25T05:48:35;24.40;99.90
3948;DHT22;1988;48.694;9.562;2022-07-25T05:51:01;24.40;99.90
3948;DHT22;1988;48.694;9.562;2022-07-25T05:53:27;24.40;99.90
3948;DHT22;1988;48.694;9.562;2022-07-25T05:55:52;24.50;99.90
3948;DHT22;1988;48.694;9.562;2022-07-25T05:58:18;24.50;99.90
3948;DHT22;1988;48.694;9.562;2022-07-25T06:00:43;24.50;99.90
3948;DHT22;1988;48.694;9.562;2022-07-25T06:03:09;24.50;99.90
3948;DHT22;1988;48.694;9.562;2022-07-25T06:05:34;24.50;99.90
3948;DHT22;1988;48.694;9.562;2022-07-25T06:08:00;24.50;99.90
3948;DHT22;1988;48.694;9.562;2022-07-25T06:10:25;24.50;99.90
3948;DHT22;1988;48.694;9.562;2022-07-25T06:12:51;24.50;99.90
3948;DHT22;1988;48.694;9.562;2022-07-25T06:15:16;24.60;99.90
3948;DHT22;1988;48.694;9.562;2022-07-25T06:17:42;24.50;99.90
3948;DHT22;1988;48.694;9.562;2022-07-25T06:20:08;24.60;99.90
3948;DHT22;1988;48.694;9.562;2022-07-25T06:22:33;24.60;99.90
3948;DHT22;1988;48.694;9.562;2022-07-25T06:25:00;24.60;99.90
3948;DHT22;1988;48.694;9.562;2022-07-25T06:27:26;24.60;99.90
3948;DHT22;1988;48.694;9.562;2022-07-25T06:29:51;24.60;99.90
3948;DHT22;1988;48.694;9.562;2022-07-25T06:32:17;24.70;99.90
3948;DHT22;1988;48.694;9.562;2022-07-25T06:34:42;24.70;99.90
3948;DHT22;1988;48.694;9.562;2022-07-25T06:37:08;24.70;99.90
3948;DHT22;1988;48.694;9.562;2022-07-25T06:39:33;24.80;99.90
3948;DHT22;1988;48.694;9.562;2022-07-25T06:41:59;24.80;99.90
3948;DHT22;1988;48.694;9.562;2022-07-25T06:44:25;24.80;99.90
3948;DHT22;1988;48.694;9.562;2022-07-25T06:46:50;24.80;99.90
3948;DHT22;1988;48.694;9.562;2022-07-25T06:49:16;24.80;99.90
3948;DHT22;1988;48.694;9.562;2022-07-25T06:51:41;24.90;99.90
3948;DHT22;1988;48.694;9.562;2022-07-25T06:54:07;24.90;99.90
3948;DHT22;1988;48.694;9.562;2022-07-25T06:56:32;24.90;99.90
3948;DHT22;1988;48.694;9.562;2022-07-25T06:58:58;24.90;99.90
3948;DHT22;1988;48.694;9.562;2022-07-25T07:01:24;25.00;99.90
3948;DHT22;1988;48.694;9.562;2022-07-25T07:03:50;25.00;99.90
3948;DHT22;1988;48.694;9.562;2022-07-25T07:06:15;25.00;99.90
3948;DHT22;1988;48.694;9.562;2022-07-25T07:08:41;25.00;99.90
3948;DHT22;1988;48.694;9.562;2022-07-25T07:11:06;25.10;99.90
3948;DHT22;1988;48.694;9.562;2022-07-25T07:13:32;25.10;99.90
3948;DHT22;1988;48.694;9.562;2022-07-25T07:15:58;25.10;99.90
3948;DHT22;1988;48.694;9.562;2022-07-25T07:18:23;25.10;99.90
3948;DHT22;1988;48.694;9.562;2022-07-25T07:20:49;25.10;99.90
3948;DHT22;1988;48.694;9.562;2022-07-25T07:23:16;25.20;99.90
3948;DHT22;1988;48.694;9.562;2022-07-25T07:25:41;25.20;99.90
3948;DHT22;1988;48.694;9.562;2022-07-25T07:28:07;25.20;99.90
3948;DHT22;1988;48.694;9.562;2022-07-25T07:30:33;25.20;99.90
3948;DHT22;1988;48.694;9.562;2022-07-25T07:32:59;25.20;99.90
3948;DHT22;1988;48.694;9.562;2022-07-25T07:35:24;25.20;99.90
3948;DHT22;1988;48.694;9.562;2022-07-25T07:37:50;25.30;99.90
3948;DHT22;1988;48.694;9.562;2022-07-25T07:40:16;25.30;99.90
3948;DHT22;1988;48.694;9.562;2022-07-25T07:42:45;25.30;99.90
3948;DHT22;1988;48.694;9.562;2022-07-25T07:45:12;25.30;99.90
3948;DHT22;1988;48.694;9.562;2022-07-25T07:47:38;25.40;99.90
3948;DHT22;1988;48.694;9.562;2022-07-25T07:50:03;25.40;99.90
3948;DHT22;1988;48.694;9.562;2022-07-25T07:52:29;25.40;99.90
3948;DHT22;1988;48.694;9.562;2022-07-25T07:54:55;25.40;99.90
3948;DHT22;1988;48.694;9.562;2022-07-25T07:57:39;25.40;99.90
3948;DHT22;1988;48.694;9.562;2022-07-25T08:00:04;25.40;99.90
3948;DHT22;1988;48.694;9.562;2022-07-25T08:02:31;25.50;99.90
3948;DHT22;1988;48.694;9.562;2022-07-25T08:04:56;25.50;99.90
3948;DHT22;1988;48.694;9.562;2022-07-25T08:07:22;25.50;99.90
3948;DHT22;1988;48.694;9.562;2022-07-25T08:09:48;25.50;99.90
3948;DHT22;1988;48.694;9.562;2022-07-25T08:12:13;25.60;99.90
3948;DHT22;1988;48.694;9.562;2022-07-25T08:14:39;25.60;99.90
3948;DHT22;1988;48.694;9.562;2022-07-25T08:17:05;25.60;99.90
3948;DHT22;1988;48.694;9.562;2022-07-25T08:19:30;25.60;99.90
3948;DHT22;1988;48.694;9.562;2022-07-25T08:21:56;25.60;99.90
3948;DHT22;1988;48.694;9.562;2022-07-25T08:24:21;25.60;99.90
3948;DHT22;1988;48.694;9.562;2022-07-25T08:26:47;25.70;99.90
3948;DHT22;1988;48.694;9.562;2022-07-25T08:29:12;25.70;99.90
3948;DHT22;1988;48.694;9.562;2022-07-25T08:31:38;25.70;99.90
3948;DHT22;1988;48.694;9.562;2022-07-25T08:34:03;25.70;99.90
3948;DHT22;1988;48.694;9.562;2022-07-25T08:36:29;25.80;99.90
3948;DHT22;1988;48.694;9.562;2022-07-25T08:38:54;25.80;99.90
3948;DHT22;1988;48.694;9.562;2022-07-25T08:41:20;25.80;99.90
3948;DHT22;1988;48.694;9.562;2022-07-25T08:43:46;25.80;99.90
3948;DHT22;1988;48.694;9.562;2022-07-25T08:46:11;25.80;99.90
3948;DHT22;1988;48.694;9.562;2022-07-25T08:48:38;25.80;99.90
3948;DHT22;1988;48.694;9.562;2022-07-25T08:51:04;25.90;99.90
3948;DHT22;1988;48.694;9.562;2022-07-25T08:53:30;25.90;99.90
3948;DHT22;1988;48.694;9.562;2022-07-25T08:55:56;25.90;99.90
3948;DHT22;1988;48.694;9.562;2022-07-25T08:58:21;25.90;99.90
3948;DHT22;1988;48.694;9.562;2022-07-25T09:00:47;26.00;99.90
3948;DHT22;1988;48.694;9.562;2022-07-25T09:03:12;26.00;99.90
3948;DHT22;1988;48.694;9.562;2022-07-25T09:05:38;26.00;99.90
3948;DHT22;1988;48.694;9.562;2022-07-25T09:08:10;26.00;99.90
3948;DHT22;1988;48.694;9.562;2022-07-25T09:10:37;26.10;99.90
3948;DHT22;1988;48.694;9.562;2022-07-25T09:13:05;26.10;99.90
3948;DHT22;1988;48.694;9.562;2022-07-25T09:15:33;26.10;99.90
3948;DHT22;1988;48.694;9.562;2022-07-25T09:17:59;26.20;99.90
3948;DHT22;1988;48.694;9.562;2022-07-25T09:20:44;26.20;99.90
3948;DHT22;1988;48.694;9.562;2022-07-25T09:23:11;26.20;99.90
3948;DHT22;1988;48.694;9.562;2022-07-25T09:25:37;26.20;99.90
3948;DHT22;1988;48.694;9.562;2022-07-25T09:28:09;26.20;99.90
3948;DHT22;1988;48.694;9.562;2022-07-25T09:30:35;26.30;99.90
3948;DHT22;1988;48.694;9.562;2022-07-25T09:33:00;26.30;99.90
3948;DHT22;1988;48.694;9.562;2022-07-25T09:35:33;26.30;99.90
3948;DHT22;1988;48.694;9.562;2022-07-25T09:38:07;26.30;99.90
3948;DHT22;1988;48.694;9.562;2022-07-25T09:40:33;26.40;99.90
3948;DHT22;1988;48.694;9.562;2022-07-25T09:42:58;26.40;99.90
3948;DHT22;1988;48.694;9.562;2022-07-25T09:45:24;26.40;99.90
3948;DHT22;1988;48.694;9.562;2022-07-25T09:47:50;26.50;99.90
3948;DHT22;1988;48.694;9.562;2022-07-25T09:50:17;26.50;99.90
3948;DHT22;1988;48.694;9.562;2022-07-25T09:52:43;26.50;99.90
3948;DHT22;1988;48.694;9.562;2022-07-25T09:55:09;26.50;99.90
3948;DHT22;1988;48.694;9.562;2022-07-25T09:57:35;26.50;99.90
3948;DHT22;1988;48.694;9.562;2022-07-25T10:00:02;26.60;99.90
3948;DHT22;1988;48.694;9.562;2022-07-25T10:07:37;26.60;99.90
3948;DHT22;1988;48.694;9.562;2022-07-25T10:10:04;26.70;99.90
3948;DHT22;1988;48.694;9.562;2022-07-25T10:12:30;26.70;99.90
3948;DHT22;1988;48.694;9.562;2022-07-25T10:15:06;26.70;99.90
3948;DHT22;1988;48.694;9.562;2022-07-25T10:17:32;26.80;99.90
3948;DHT22;1988;48.694;9.562;2022-07-25T10:19:58;26.80;99.90
3948;DHT22;1988;48.694;9.562;2022-07-25T10:22:44;26.90;99.90
3948;DHT22;1988;48.694;9.562;2022-07-25T10:25:12;26.90;99.90
3948;DHT22;1988;48.694;9.562;2022-07-25T10:27:45;26.90;99.90
3948;DHT22;1988;48.694;9.562;2022-07-25T10:30:23;26.90;99.90
3948;DHT22;1988;48.694;9.562;2022-07-25T10:32:56;27.00;99.90
3948;DHT22;1988;48.694;9.562;2022-07-25T10:35:22;27.00;99.90
3948;DHT22;1988;48.694;9.562;2022-07-25T10:37:53;27.00;99.90
3948;DHT22;1988;48.694;9.562;2022-07-25T10:40:33;27.00;99.90
3948;DHT22;1988;48.694;9.562;2022-07-25T10:43:22;27.10;99.90
3948;DHT22;1988;48.694;9.562;2022-07-25T10:45:50;27.10;99.90
3948;DHT22;1988;48.694;9.562;2022-07-25T10:48:20;27.10;99.90
3948;DHT22;1988;48.694;9.562;2022-07-25T10:53:25;27.20;99.90
3948;DHT22;1988;48.694;9.562;2022-07-25T10:55:55;27.20;99.90
3948;DHT22;1988;48.694;9.562;2022-07-25T10:58:20;27.30;99.90
3948;DHT22;1988;48.694;9.562;2022-07-25T11:00:46;27.30;99.90
3948;DHT22;1988;48.694;9.562;2022-07-25T11:03:11;27.30;99.90
3948;DHT22;1988;48.694;9.562;2022-07-25T11:05:43;27.30;99.90
3948;DHT22;1988;48.694;9.562;2022-07-25T11:08:09;27.40;99.90
3948;DHT22;1988;48.694;9.562;2022-07-25T11:10:35;27.40;99.90
3948;DHT22;1988;48.694;9.562;2022-07-25T11:13:00;27.50;99.90
3948;DHT22;1988;48.694;9.562;2022-07-25T11:15:26;27.50;99.90
3948;DHT22;1988;48.694;9.562;2022-07-25T11:17:53;27.50;99.90
3948;DHT22;1988;48.694;9.562;2022-07-25T11:20:20;27.50;99.90
3948;DHT22;1988;48.694;9.562;2022-07-25T11:22:52;27.60;99.90
3948;DHT22;1988;48.694;9.562;2022-07-25T11:25:19;27.60;99.90
3948;DHT22;1988;48.694;9.562;2022-07-25T11:27:48;27.70;99.90
3948;DHT22;1988;48.694;9.562;2022-07-25T11:30:17;27.70;99.90
3948;DHT22;1988;48.694;9.562;2022-07-25T11:32:45;27.70;99.90
3948;DHT22;1988;48.694;9.562;2022-07-25T11:35:11;27.80;99.90
3948;DHT22;1988;48.694;9.562;2022-07-25T11:37:38;27.80;99.90
3948;DHT22;1988;48.694;9.562;2022-07-25T11:40:05;27.90;99.90
3948;DHT22;1988;48.694;9.562;2022-07-25T11:42:40;27.90;99.90
3948;DHT22;1988;48.694;9.562;2022-07-25T11:47:41;28.00;99.90
3948;DHT22;1988;48.694;9.562;2022-07-25T11:50:06;28.00;99.90
3948;DHT22;1988;48.694;9.562;2022-07-25T11:52:35;28.10;99.90
3948;DHT22;1988;48.694;9.562;2022-07-25T11:55:09;28.10;99.90
3948;DHT22;1988;48.694;9.562;2022-07-25T11:57:36;28.10;99.90
3948;DHT22;1988;48.694;9.562;2022-07-25T12:00:03;28.20;99.90
3948;DHT22;1988;48.694;9.562;2022-07-25T12:02:31;28.30;99.90
3948;DHT22;1988;48.694;9.562;2022-07-25T12:05:07;28.30;99.90
3948;DHT22;1988;48.694;9.562;2022-07-25T12:07:49;28.30;99.90
3948;DHT22;1988;48.694;9.562;2022-07-25T12:10:16;28.40;99.90
3948;DHT22;1988;48.694;9.562;2022-07-25T12:15:10;28.50;99.90
3948;DHT22;1988;48.694;9.562;2022-07-25T12:17:38;28.50;99.90
3948;DHT22;1988;48.694;9.562;2022-07-25T12:20:04;28.60;99.90
3948;DHT22;1988;48.694;9.562;2022-07-25T12:22:30;28.60;99.90
3948;DHT22;1988;48.694;9.562;2022-07-25T12:24:55;28.60;99.90
3948;DHT22;1988;48.694;9.562;2022-07-25T12:27:21;28.70;99.90
3948;DHT22;1988;48.694;9.562;2022-07-25T12:29:46;28.80;99.90
3948;DHT22;1988;48.694;9.562;2022-07-25T12:32:12;28.80;99.90
3948;DHT22;1988;48.694;9.562;2022-07-25T12:34:37;28.80;99.90
3948;DHT22;1988;48.694;9.562;2022-07-25T12:37:03;28.90;99.90
3948;DHT22;1988;48.694;9.562;2022-07-25T12:39:28;28.90;99.90
3948;DHT22;1988;48.694;9.562;2022-07-25T12:41:54;28.90;99.90
3948;DHT22;1988;48.694;9.562;2022-07-25T12:44:19;29.00;99.90
3948;DHT22;1988;48.694;9.562;2022-07-25T12:46:45;29.00;99.90
3948;DHT22;1988;48.694;9.562;2022-07-25T12:49:10;29.10;99.90
3948;DHT22;1988;48.694;9.562;2022-07-25T12:51:36;29.10;99.90
3948;DHT22;1988;48.694;9.562;2022-07-25T12:54:01;29.10;99.90
3948;DHT22;1988;48.694;9.562;2022-07-25T12:56:27;29.20;99.90
3948;DHT22;1988;48.694;9.562;2022-07-25T12:58:52;29.30;99.90
3948;DHT22;1988;48.694;9.562;2022-07-25T13:01:19;29.30;99.90
3948;DHT22;1988;48.694;9.562;2022-07-25T13:03:44;29.30;99.90
3948;DHT22;1988;48.694;9.562;2022-07-25T13:06:10;29.40;99.90
3948;DHT22;1988;48.694;9.562;2022-07-25T13:08:35;29.40;99.90
3948;DHT22;1988;48.694;9.562;2022-07-25T13:11:02;29.50;99.90
3948;DHT22;1988;48.694;9.562;2022-07-25T13:13:28;29.50;99.90
3948;DHT22;1988;48.694;9.562;2022-07-25T13:15:53;29.60;99.90
3948;DHT22;1988;48.694;9.562;2022-07-25T13:18:19;29.60;99.90
3948;DHT22;1988;48.694;9.562;2022-07-25T13:20:44;29.60;99.90
3948;DHT22;1988;48.694;9.562;2022-07-25T13:23:10;29.70;99.90
3948;DHT22;1988;48.694;9.562;2022-07-25T13:25:35;29.70;99.90
3948;DHT22;1988;48.694;9.562;2022-07-25T13:28:02;29.80;99.90
3948;DHT22;1988;48.694;9.562;2022-07-25T13:30:28;29.80;99.90
3948;DHT22;1988;48.694;9.562;2022-07-25T13:32:54;29.80;99.90
3948;DHT22;1988;48.694;9.562;2022-07-25T13:35:19;29.90;99.90
3948;DHT22;1988;48.694;9.562;2022-07-25T13:37:45;29.90;99.90
3948;DHT22;1988;48.694;9.562;2022-07-25T13:40:11;29.90;99.90
3948;DHT22;1988;48.694;9.562;2022-07-25T13:42:37;30.00;99.90
3948;DHT22;1988;48.694;9.562;2022-07-25T13:45:03;30.00;99.90
3948;DHT22;1988;48.694;9.562;2022-07-25T13:47:28;30.10;99.90
3948;DHT22;1988;48.694;9.562;2022-07-25T13:49:55;30.10;99.90
3948;DHT22;1988;48.694;9.562;2022-07-25T13:52:21;30.10;99.90
3948;DHT22;1988;48.694;9.562;2022-07-25T13:54:46;30.20;99.90
3948;DHT22;1988;48.694;9.562;2022-07-25T13:57:12;30.20;99.90
3948;DHT22;1988;48.694;9.562;2022-07-25T13:59:38;30.20;99.90
3948;DHT22;1988;48.694;9.562;2022-07-25T14:02:03;30.30;99.90
3948;DHT22;1988;48.694;9.562;2022-07-25T14:04:29;30.30;99.90
3948;DHT22;1988;48.694;9.562;2022-07-25T14:06:55;30.30;99.90
3948;DHT22;1988;48.694;9.562;2022-07-25T14:09:20;30.30;99.90
3948;DHT22;1988;48.694;9.562;2022-07-25T14:11:46;30.30;99.90
3948;DHT22;1988;48.694;9.562;2022-07-25T14:14:12;30.40;99.90
3948;DHT22;1988;48.694;9.562;2022-07-25T14:16:37;30.40;99.90
3948;DHT22;1988;48.694;9.562;2022-07-25T14:19:03;30.40;99.90
3948;DHT22;1988;48.694;9.562;2022-07-25T14:21:29;30.40;99.90
3948;DHT22;1988;48.694;9.562;2022-07-25T14:23:54;30.40;99.90
3948;DHT22;1988;48.694;9.562;2022-07-25T14:26:20;30.40;99.90
3948;DHT22;1988;48.694;9.562;2022-07-25T14:28:45;30.50;99.90
3948;DHT22;1988;48.694;9.562;2022-07-25T14:31:11;30.50;99.90
3948;DHT22;1988;48.694;9.562;2022-07-25T14:33:36;30.50;99.90
3948;DHT22;1988;48.694;9.562;2022-07-25T14:36:07;30.50;99.90
3948;DHT22;1988;48.694;9.562;2022-07-25T14:38:34;30.50;99.90
3948;DHT22;1988;48.694;9.562;2022-07-25T14:40:59;30.50;99.90
3948;DHT22;1988;48.694;9.562;2022-07-25T14:43:25;30.60;99.90
3948;DHT22;1988;48.694;9.562;2022-07-25T14:45:50;30.60;99.90
3948;DHT22;1988;48.694;9.562;2022-07-25T14:48:16;30.60;99.90
3948;DHT22;1988;48.694;9.562;2022-07-25T14:50:42;30.60;99.90
3948;DHT22;1988;48.694;9.562;2022-07-25T14:53:07;30.60;99.90
3948;DHT22;1988;48.694;9.562;2022-07-25T14:55:33;30.60;99.90
3948;DHT22;1988;48.694;9.562;2022-07-25T14:57:58;30.60;99.90
3948;DHT22;1988;48.694;9.562;2022-07-25T15:00:27;30.70;99.90
3948;DHT22;1988;48.694;9.562;2022-07-25T15:02:53;30.70;99.90
3948;DHT22;1988;48.694;9.562;2022-07-25T15:05:18;30.70;99.90
3948;DHT22;1988;48.694;9.562;2022-07-25T15:07:44;30.70;99.90
3948;DHT22;1988;48.694;9.562;2022-07-25T15:10:09;30.70;99.90
3948;DHT22;1988;48.694;9.562;2022-07-25T15:12:35;30.70;99.90
3948;DHT22;1988;48.694;9.562;2022-07-25T15:15:00;30.80;99.90
3948;DHT22;1988;48.694;9.562;2022-07-25T15:17:26;30.80;99.90
3948;DHT22;1988;48.694;9.562;2022-07-25T15:19:51;30.80;99.90
3948;DHT22;1988;48.694;9.562;2022-07-25T15:22:17;30.80;99.90
3948;DHT22;1988;48.694;9.562;2022-07-25T15:24:42;30.80;99.90
3948;DHT22;1988;48.694;9.562;2022-07-25T15:27:08;30.80;99.90
3948;DHT22;1988;48.694;9.562;2022-07-25T15:29:33;30.80;99.90
3948;DHT22;1988;48.694;9.562;2022-07-25T15:31:59;30.80;99.90
3948;DHT22;1988;48.694;9.562;2022-07-25T15:34:27;30.80;99.90
3948;DHT22;1988;48.694;9.562;2022-07-25T15:36:53;30.90;99.90
3948;DHT22;1988;48.694;9.562;2022-07-25T15:39:19;30.90;99.90
3948;DHT22;1988;48.694;9.562;2022-07-25T15:41:45;30.90;99.90
3948;DHT22;1988;48.694;9.562;2022-07-25T15:44:10;31.00;99.90
3948;DHT22;1988;48.694;9.562;2022-07-25T15:46:37;30.90;99.90
3948;DHT22;1988;48.694;9.562;2022-07-25T15:49:03;30.90;99.90
3948;DHT22;1988;48.694;9.562;2022-07-25T15:51:28;30.90;99.90
3948;DHT22;1988;48.694;9.562;2022-07-25T15:53:54;30.90;99.90
3948;DHT22;1988;48.694;9.562;2022-07-25T15:56:19;30.90;99.90
3948;DHT22;1988;48.694;9.562;2022-07-25T15:58:46;30.90;99.90
3948;DHT22;1988;48.694;9.562;2022-07-25T16:01:11;30.90;99.90
3948;DHT22;1988;48.694;9.562;2022-07-25T16:03:37;30.90;99.90
3948;DHT22;1988;48.694;9.562;2022-07-25T16:06:02;30.90;99.90
3948;DHT22;1988;48.694;9.562;2022-07-25T16:08:28;30.90;99.90